createdAt,value
2018-05-03T00:01:06.346Z,74.34
2018-05-03T00:03:36.211Z,74.30
2018-05-03T00:06:02.813Z,74.23
2018-05-03T00:08:29.461Z,74.08
2018-05-03T00:10:56.105Z,74.38
2018-05-03T00:13:26.599Z,74.35
2018-05-03T00:15:53.201Z,73.85
2018-05-03T00:18:20.163Z,73.62
2018-05-03T00:20:46.693Z,73.90
2018-05-03T00:23:17.249Z,73.88
2018-05-03T00:25:44.428Z,74.05
2018-05-03T00:28:11.074Z,73.53
2018-05-03T00:30:38.433Z,73.30
2018-05-03T00:33:08.157Z,74.05
2018-05-03T00:35:34.817Z,74.22
2018-05-03T00:38:01.475Z,74.12
2018-05-03T00:40:28.126Z,74.41
2018-05-03T00:42:56.163Z,74.67
2018-05-03T00:45:22.874Z,74.23
2018-05-03T00:47:49.758Z,72.96
2018-05-03T00:50:16.909Z,73.22
2018-05-03T00:52:47.429Z,73.76
2018-05-03T00:55:14.112Z,74.54
2018-05-03T00:57:40.702Z,73.83
2018-05-03T01:00:07.272Z,73.58
2018-05-03T01:02:48.225Z,73.88
2018-05-03T01:05:14.759Z,73.97
2018-05-03T01:07:41.383Z,73.69
2018-05-03T01:10:08.156Z,74.09
2018-05-03T01:12:45.330Z,74.77
2018-05-03T01:15:11.892Z,73.76
2018-05-03T01:17:38.514Z,74.47
2018-05-03T01:20:05.045Z,74.33
2018-05-03T01:22:35.255Z,74.99
2018-05-03T01:25:01.890Z,74.05
2018-05-03T01:27:28.416Z,74.34
2018-05-03T01:29:55.165Z,74.47
2018-05-03T01:32:26.516Z,75.06
2018-05-03T01:35:04.946Z,74.44
2018-05-03T01:37:31.594Z,74.43
2018-05-03T01:39:59.565Z,74.57
2018-05-03T01:42:26.248Z,74.63
2018-05-03T01:44:52.903Z,74.52
2018-05-03T01:47:19.493Z,74.24
2018-05-03T01:49:46.229Z,74.34
2018-05-03T01:52:14.408Z,73.33
2018-05-03T01:54:41.133Z,73.85
2018-05-03T01:57:07.701Z,73.88
2018-05-03T01:59:34.704Z,73.94
2018-05-03T02:02:01.257Z,74.57
2018-05-03T02:04:27.888Z,73.97
2018-05-03T02:06:54.797Z,74.54
2018-05-03T02:09:21.522Z,74.60
2018-05-03T02:11:48.286Z,73.58
2018-05-03T02:14:15.990Z,72.70
2018-05-03T02:16:42.609Z,73.09
2018-05-03T02:19:09.492Z,73.11
2018-05-03T02:21:36.139Z,73.51
2018-05-03T02:24:06.101Z,73.57
2018-05-03T02:26:32.898Z,73.28
2018-05-03T02:28:59.482Z,74.37
2018-05-03T02:31:25.989Z,74.16
2018-05-03T02:33:56.096Z,73.63
2018-05-03T02:36:22.632Z,74.27
2018-05-03T02:38:49.382Z,75.26
2018-05-03T02:41:16.096Z,74.93
2018-05-03T02:43:43.045Z,74.76
2018-05-03T02:46:09.963Z,74.46
2018-05-03T02:48:36.601Z,74.88
2018-05-03T02:51:03.142Z,75.26
2018-05-03T02:53:37.396Z,74.78
2018-05-03T02:56:04.684Z,75.27
2018-05-03T02:58:43.416Z,74.83
2018-05-03T03:01:28.171Z,74.36
2018-05-03T03:04:16.943Z,73.92
2018-05-03T03:13:36.097Z,73.83
2018-05-03T03:16:20.889Z,73.84
2018-05-03T03:19:05.490Z,73.00
2018-05-03T03:24:47.944Z,74.71
2018-05-03T03:27:32.837Z,74.28
2018-05-03T03:30:11.554Z,74.42
2018-05-03T03:32:56.524Z,73.92
2018-05-03T03:38:46.060Z,73.92
2018-05-03T03:41:24.734Z,73.74
2018-05-03T03:44:08.916Z,73.51
2018-05-03T03:46:35.737Z,74.83
2018-05-03T03:49:02.490Z,74.22
2018-05-03T03:51:29.264Z,73.55
2018-05-03T03:53:59.065Z,74.33
2018-05-03T03:56:25.672Z,74.33
2018-05-03T03:58:52.532Z,73.92
2018-05-03T04:01:19.226Z,74.03
2018-05-03T04:03:47.162Z,74.46
2018-05-03T04:06:13.723Z,73.96
2018-05-03T04:08:40.497Z,75.22
2018-05-03T04:11:07.155Z,74.07
2018-05-03T04:13:40.723Z,73.91
2018-05-03T04:16:07.460Z,73.97
2018-05-03T04:18:46.012Z,73.41
2018-05-03T04:21:25.291Z,73.38
2018-05-03T04:24:08.217Z,73.79
2018-05-03T04:26:34.970Z,74.12
2018-05-03T04:29:01.565Z,72.62
2018-05-03T04:31:28.272Z,71.83
2018-05-03T04:33:59.192Z,71.06
2018-05-03T04:36:25.743Z,70.80
2018-05-03T04:38:52.814Z,70.79
2018-05-03T04:41:19.378Z,70.42
2018-05-03T04:43:53.114Z,70.80
2018-05-03T04:46:19.789Z,69.91
2018-05-03T04:48:46.405Z,69.91
2018-05-03T04:51:13.024Z,70.96
2018-05-03T04:53:42.929Z,71.60
2018-05-03T04:56:09.617Z,71.46
2018-05-03T04:58:36.337Z,70.09
2018-05-03T05:01:03.736Z,71.58
2018-05-03T05:03:35.083Z,71.58
2018-05-03T05:06:02.155Z,71.68
2018-05-03T05:08:28.779Z,70.96
2018-05-03T05:10:55.428Z,71.12
2018-05-03T05:13:22.598Z,71.06
2018-05-03T05:15:49.282Z,70.54
2018-05-03T05:18:16.001Z,70.41
2018-05-03T05:20:42.484Z,70.77
2018-05-03T05:23:12.266Z,71.67
2018-05-03T05:25:39.110Z,70.52
2018-05-03T05:28:05.740Z,71.53
2018-05-03T05:30:32.413Z,70.98
2018-05-03T05:33:05.104Z,71.44
2018-05-03T05:35:31.742Z,70.02
2018-05-03T05:37:58.414Z,70.36
2018-05-03T05:40:25.222Z,70.08
2018-05-03T05:42:55.013Z,68.89
2018-05-03T05:45:21.657Z,67.35
2018-05-03T05:47:48.306Z,67.49
2018-05-03T05:50:14.951Z,68.13
2018-05-03T05:52:47.918Z,67.47
2018-05-03T05:55:14.617Z,67.73
2018-05-03T05:57:41.450Z,64.40
2018-05-03T06:00:08.121Z,64.21
2018-05-03T06:02:56.297Z,64.04
2018-05-03T06:05:23.031Z,64.85
2018-05-03T06:07:49.745Z,64.84
2018-05-03T06:10:17.583Z,64.46
2018-05-03T06:13:01.413Z,65.25
2018-05-03T06:15:28.031Z,68.30
2018-05-03T06:17:54.693Z,68.91
2018-05-03T06:20:21.422Z,68.86
2018-05-03T06:22:51.250Z,67.86
2018-05-03T06:25:18.182Z,67.81
2018-05-03T06:27:44.890Z,68.21
2018-05-03T06:30:11.655Z,69.37
2018-05-03T06:32:41.807Z,68.62
2018-05-03T06:35:08.427Z,68.97
2018-05-03T06:37:35.107Z,68.73
2018-05-03T06:40:01.610Z,68.73
2018-05-03T06:42:31.730Z,68.58
2018-05-03T06:44:58.389Z,68.39
2018-05-03T06:47:25.399Z,67.75
2018-05-03T06:49:52.198Z,67.08
2018-05-03T06:52:21.882Z,67.95
2018-05-03T06:54:48.510Z,67.20
2018-05-03T06:57:15.253Z,66.25
2018-05-03T06:59:41.926Z,65.93
2018-05-03T07:02:21.453Z,66.33
2018-05-03T07:04:48.395Z,65.47
2018-05-03T07:07:15.070Z,65.08
2018-05-03T07:09:41.625Z,65.67
2018-05-03T07:12:11.994Z,65.68
2018-05-03T07:14:38.630Z,63.28
2018-05-03T07:17:05.389Z,63.75
2018-05-03T07:19:32.340Z,63.72
2018-05-03T07:21:59.009Z,63.89
2018-05-03T07:24:25.734Z,65.36
2018-05-03T07:26:52.235Z,63.57
2018-05-03T07:29:18.935Z,63.65
2018-05-03T07:31:51.269Z,62.15
2018-05-03T07:34:18.369Z,64.70
2018-05-03T07:36:45.078Z,63.70
2018-05-03T07:39:11.711Z,61.97
2018-05-03T07:41:45.731Z,60.57
2018-05-03T07:44:12.334Z,62.33
2018-05-03T07:46:38.910Z,62.49
2018-05-03T07:49:05.461Z,62.15
2018-05-03T07:51:35.641Z,61.38
2018-05-03T07:54:02.253Z,60.68
2018-05-03T07:56:28.826Z,63.60
2018-05-03T07:58:55.498Z,62.34
2018-05-03T08:01:23.113Z,61.07
2018-05-03T08:03:49.745Z,59.17
2018-05-03T08:06:16.306Z,59.03
2018-05-03T08:08:43.031Z,59.11
2018-05-03T08:11:09.971Z,57.45
2018-05-03T08:13:36.609Z,58.79
2018-05-03T08:16:03.221Z,59.46
2018-05-03T08:18:29.978Z,59.52
2018-05-03T08:20:56.504Z,60.16
2018-05-03T08:23:24.125Z,61.44
2018-05-03T08:25:50.698Z,58.23
2018-05-03T08:28:18.202Z,58.85
2018-05-03T08:30:44.805Z,61.00
2018-05-03T08:33:14.911Z,59.45
2018-05-03T08:35:41.746Z,57.61
2018-05-03T08:38:08.480Z,58.72
2018-05-03T08:40:35.134Z,57.96
2018-05-03T08:43:06.962Z,57.05
2018-05-03T08:45:33.632Z,57.01
2018-05-03T08:48:00.131Z,58.74
2018-05-03T08:50:26.773Z,59.54
2018-05-03T08:52:58.232Z,56.85
2018-05-03T08:55:24.977Z,55.43
2018-05-03T08:57:51.638Z,60.02
2018-05-03T09:00:18.245Z,56.32
2018-05-03T09:02:46.048Z,54.81
2018-05-03T09:05:12.557Z,54.34
2018-05-03T09:07:39.228Z,54.31
2018-05-03T09:10:05.813Z,54.86
2018-05-03T09:12:33.966Z,51.98
2018-05-03T09:15:01.233Z,53.24
2018-05-03T09:17:27.958Z,52.50
2018-05-03T09:19:54.645Z,52.69
2018-05-03T09:22:22.440Z,54.41
2018-05-03T09:24:49.268Z,52.69
2018-05-03T09:27:15.856Z,52.53
2018-05-03T09:29:42.560Z,54.41
2018-05-03T09:32:14.733Z,53.13
2018-05-03T09:34:41.365Z,52.21
2018-05-03T09:37:08.582Z,49.92
2018-05-03T09:39:35.361Z,49.42
2018-05-03T09:42:07.867Z,48.39
2018-05-03T09:44:34.922Z,49.65
2018-05-03T09:47:01.513Z,52.86
2018-05-03T09:49:28.529Z,48.78
2018-05-03T09:52:00.338Z,48.87
2018-05-03T09:54:26.894Z,48.64
2018-05-03T09:56:53.518Z,52.52
2018-05-03T09:59:20.140Z,49.84
2018-05-03T10:01:48.087Z,47.85
2018-05-03T10:04:14.868Z,48.45
2018-05-03T10:06:41.979Z,47.77
2018-05-03T10:09:08.548Z,52.17
2018-05-03T10:11:38.650Z,52.08
2018-05-03T10:14:05.246Z,49.56
2018-05-03T10:16:31.848Z,48.71
2018-05-03T10:18:58.642Z,50.30
2018-05-03T10:21:28.557Z,47.17
2018-05-03T10:23:55.054Z,46.77
2018-05-03T10:26:21.735Z,46.37
2018-05-03T10:28:48.370Z,51.85
2018-05-03T10:31:18.694Z,51.49
2018-05-03T10:33:45.399Z,45.89
2018-05-03T10:36:12.295Z,46.77
2018-05-03T10:38:38.788Z,50.26
2018-05-03T10:41:09.494Z,47.53
2018-05-03T10:43:36.196Z,51.02
2018-05-03T10:46:02.753Z,51.09
2018-05-03T10:48:29.433Z,50.13
2018-05-03T10:50:59.517Z,48.42
2018-05-03T10:53:26.122Z,49.63
2018-05-03T10:55:52.725Z,48.55
2018-05-03T10:58:19.408Z,47.34
2018-05-03T11:00:52.497Z,49.58
2018-05-03T11:03:19.125Z,46.42
2018-05-03T11:05:45.786Z,48.01
2018-05-03T11:08:12.469Z,46.69
2018-05-03T11:10:39.224Z,49.28
2018-05-03T11:13:06.036Z,47.12
2018-05-03T11:15:32.807Z,45.44
2018-05-03T11:17:59.630Z,46.96
2018-05-03T11:20:26.355Z,45.75
2018-05-03T11:22:54.162Z,45.79
2018-05-03T11:25:20.812Z,45.69
2018-05-03T11:27:47.543Z,45.70
2018-05-03T11:30:14.218Z,45.79
2018-05-03T11:32:46.569Z,46.66
2018-05-03T11:35:13.195Z,47.39
2018-05-03T11:37:39.967Z,48.04
2018-05-03T11:40:06.645Z,50.22
2018-05-03T11:42:37.207Z,46.40
2018-05-03T11:45:03.990Z,46.09
2018-05-03T11:47:30.692Z,46.06
2018-05-03T11:49:57.374Z,46.20
2018-05-03T11:52:28.065Z,45.92
2018-05-03T11:54:54.773Z,46.07
2018-05-03T11:57:21.427Z,43.91
2018-05-03T11:59:47.940Z,43.40
2018-05-03T12:02:19.843Z,43.66
2018-05-03T12:04:46.420Z,45.23
2018-05-03T12:07:13.123Z,44.38
2018-05-03T12:09:39.739Z,42.58
2018-05-03T12:12:12.859Z,44.57
2018-05-03T12:14:39.615Z,44.97
2018-05-03T12:17:06.253Z,44.53
2018-05-03T12:19:32.844Z,46.30
2018-05-03T12:22:04.161Z,43.48
2018-05-03T12:24:31.152Z,42.34
2018-05-03T12:26:57.885Z,40.80
2018-05-03T12:29:24.870Z,42.60
2018-05-03T12:31:55.421Z,45.34
2018-05-03T12:34:22.081Z,46.04
2018-05-03T12:36:48.718Z,43.79
2018-05-03T12:39:15.383Z,42.16
2018-05-03T12:41:48.393Z,44.43
2018-05-03T12:44:15.426Z,43.89
2018-05-03T12:46:42.111Z,45.00
2018-05-03T12:49:08.663Z,42.97
2018-05-03T12:51:36.404Z,44.03
2018-05-03T12:54:03.006Z,43.78
2018-05-03T12:56:29.569Z,43.44
2018-05-03T12:58:56.586Z,42.75
2018-05-03T13:01:24.613Z,43.33
2018-05-03T13:03:51.308Z,41.92
2018-05-03T13:06:18.206Z,42.58
2018-05-03T13:08:44.930Z,41.28
2018-05-03T13:11:18.910Z,44.56
2018-05-03T13:13:45.551Z,43.73
2018-05-03T13:16:12.357Z,41.52
2018-05-03T13:18:39.020Z,42.11
2018-05-03T13:21:11.810Z,40.30
2018-05-03T13:23:38.577Z,43.23
2018-05-03T13:26:05.122Z,42.72
2018-05-03T13:28:31.882Z,42.39
2018-05-03T13:31:05.235Z,43.63
2018-05-03T13:33:31.965Z,43.10
2018-05-03T13:35:58.557Z,45.33
2018-05-03T13:38:25.370Z,44.45
2018-05-03T13:40:53.011Z,45.08
2018-05-03T13:43:19.849Z,45.58
2018-05-03T13:45:46.533Z,45.09
2018-05-03T13:48:13.828Z,44.39
2018-05-03T13:50:41.706Z,46.97
2018-05-03T13:53:08.441Z,48.57
2018-05-03T13:55:35.233Z,49.13
2018-05-03T13:58:01.929Z,49.52
2018-05-03T14:00:28.534Z,45.59
2018-05-03T14:02:56.132Z,47.81
2018-05-03T14:05:22.857Z,49.63
2018-05-03T14:07:49.491Z,50.87
2018-05-03T14:10:22.716Z,50.96
2018-05-03T14:12:49.522Z,50.52
2018-05-03T14:15:16.190Z,50.90
2018-05-03T14:17:42.822Z,48.80
2018-05-03T14:20:09.498Z,51.28
2018-05-03T14:22:36.891Z,51.17
2018-05-03T14:25:03.437Z,53.36
2018-05-03T14:27:30.063Z,49.57
2018-05-03T14:29:56.762Z,50.18
2018-05-03T14:32:29.822Z,53.89
2018-05-03T14:34:56.501Z,53.60
2018-05-03T14:37:23.303Z,52.07
2018-05-03T14:39:56.731Z,51.16
2018-05-03T14:42:29.151Z,50.26
2018-05-03T14:44:56.228Z,55.59
2018-05-03T14:47:22.859Z,53.96
2018-05-03T14:49:49.515Z,53.22
2018-05-03T14:52:17.273Z,52.98
2018-05-03T14:54:44.190Z,54.83
2018-05-03T14:57:10.937Z,54.98
2018-05-03T14:59:37.618Z,54.27
2018-05-03T15:02:05.225Z,51.83
2018-05-03T15:04:31.965Z,49.98
2018-05-03T15:06:58.970Z,53.27
2018-05-03T15:09:25.703Z,51.59
2018-05-03T15:11:55.916Z,51.61
2018-05-03T15:14:22.680Z,49.09
2018-05-03T15:16:49.811Z,50.73
2018-05-03T15:19:16.573Z,54.94
2018-05-03T15:21:47.063Z,54.35
2018-05-03T15:24:13.728Z,53.33
2018-05-03T15:26:40.292Z,55.02
2018-05-03T15:29:08.347Z,56.58
2018-05-03T15:31:38.776Z,55.69
2018-05-03T15:34:05.744Z,54.91
2018-05-03T15:36:32.378Z,57.22
2018-05-03T15:39:00.041Z,57.57
2018-05-03T15:41:27.614Z,56.41
2018-05-03T15:43:54.354Z,57.86
2018-05-03T15:46:20.981Z,54.36
2018-05-03T15:48:48.012Z,52.79
2018-05-03T15:51:18.095Z,55.51
2018-05-03T15:53:44.745Z,57.78
2018-05-03T15:56:11.474Z,58.64
2018-05-03T15:58:38.155Z,61.79
2018-05-03T16:01:08.298Z,61.74
2018-05-03T16:03:35.117Z,62.01
2018-05-03T16:06:01.884Z,57.55
2018-05-03T16:08:28.721Z,53.91
2018-05-03T16:10:58.834Z,56.66
2018-05-03T16:13:25.814Z,58.51
2018-05-03T16:15:52.498Z,54.81
2018-05-03T16:18:19.191Z,56.63
2018-05-03T16:20:52.367Z,57.85
2018-05-03T16:23:19.358Z,57.10
2018-05-03T16:25:46.470Z,60.82
2018-05-03T16:28:13.289Z,60.76
2018-05-03T16:30:43.282Z,62.88
2018-05-03T16:33:09.986Z,60.71
2018-05-03T16:35:37.817Z,58.64
2018-05-03T16:38:14.977Z,61.60
2018-05-03T16:40:41.788Z,63.96
2018-05-03T16:43:08.306Z,65.44
2018-05-03T16:45:34.878Z,65.61
2018-05-03T16:48:01.450Z,65.44
2018-05-03T16:50:31.506Z,66.62
2018-05-03T16:52:58.286Z,66.88
2018-05-03T16:55:24.933Z,67.56
2018-05-03T16:57:51.700Z,67.69
2018-05-03T17:00:18.324Z,68.03
2018-05-03T17:02:44.875Z,68.43
2018-05-03T17:05:11.558Z,67.99
2018-05-03T17:07:38.208Z,68.36
2018-05-03T17:10:12.514Z,67.54
2018-05-03T17:12:39.162Z,69.11
2018-05-03T17:15:05.826Z,70.49
2018-05-03T17:17:32.635Z,70.35
2018-05-03T17:20:02.944Z,70.16
2018-05-03T17:22:29.682Z,70.23
2018-05-03T17:24:56.265Z,69.44
2018-05-03T17:27:22.914Z,69.13
2018-05-03T17:29:50.513Z,69.78
2018-05-03T17:32:17.109Z,69.12
2018-05-03T17:34:43.822Z,69.83
2018-05-03T17:37:10.426Z,69.83
2018-05-03T17:39:37.181Z,69.72
2018-05-03T17:42:03.853Z,69.69
2018-05-03T17:44:30.635Z,70.04
2018-05-03T17:46:57.243Z,70.14
2018-05-03T17:49:23.950Z,70.26
2018-05-03T17:52:00.962Z,69.90
2018-05-03T17:54:27.696Z,70.60
2018-05-03T17:56:54.322Z,70.48
2018-05-03T17:59:20.974Z,70.22
2018-05-03T18:01:52.564Z,70.25
2018-05-03T18:04:19.209Z,71.46
2018-05-03T18:06:45.858Z,70.48
2018-05-03T18:09:12.578Z,68.10
2018-05-03T18:11:45.078Z,68.57
2018-05-03T18:14:11.811Z,69.19
2018-05-03T18:16:38.534Z,69.32
2018-05-03T18:19:05.103Z,69.21
2018-05-03T18:21:35.205Z,69.86
2018-05-03T18:24:01.928Z,68.55
2018-05-03T18:26:28.581Z,68.24
2018-05-03T18:28:55.179Z,68.07
2018-05-03T18:31:22.837Z,69.77
2018-05-03T18:33:49.433Z,70.80
2018-05-03T18:36:16.164Z,71.29
2018-05-03T18:38:43.221Z,70.53
2018-05-03T18:41:20.211Z,70.11
2018-05-03T18:43:46.755Z,69.99
2018-05-03T18:46:13.285Z,69.76
2018-05-03T18:48:39.849Z,73.62
2018-05-03T18:51:09.805Z,73.48
2018-05-03T18:53:36.598Z,74.83
2018-05-03T18:56:03.260Z,73.64
2018-05-03T18:58:30.418Z,74.76
2018-05-03T19:01:02.234Z,72.79
2018-05-03T19:03:28.851Z,74.39
2018-05-03T19:05:56.052Z,71.69
2018-05-03T19:08:22.571Z,71.39
2018-05-03T19:10:52.356Z,71.34
2018-05-03T19:13:19.186Z,72.38
2018-05-03T19:15:45.686Z,72.61
2018-05-03T19:18:12.183Z,73.81
2018-05-03T19:20:42.847Z,74.28
2018-05-03T19:23:09.871Z,75.01
2018-05-03T19:25:36.599Z,72.35
2018-05-03T19:28:03.846Z,72.55
2018-05-03T19:30:36.051Z,73.18
2018-05-03T19:33:02.632Z,72.06
2018-05-03T19:35:29.695Z,72.61
2018-05-03T19:37:56.327Z,73.39
2018-05-03T19:40:27.146Z,73.23
2018-05-03T19:42:53.878Z,72.86
2018-05-03T19:45:20.840Z,72.35
2018-05-03T19:47:47.472Z,74.30
2018-05-03T19:50:15.194Z,74.24
2018-05-03T19:52:41.727Z,74.37
2018-05-03T19:55:08.390Z,74.24
2018-05-03T19:57:35.084Z,73.90
2018-05-03T20:00:02.881Z,73.55
2018-05-03T20:02:29.598Z,74.00
2018-05-03T20:04:56.346Z,73.97
2018-05-03T20:07:23.053Z,73.32
2018-05-03T20:09:49.717Z,72.24
2018-05-03T20:12:16.463Z,72.30
2018-05-03T20:14:43.172Z,74.48
2018-05-03T20:17:09.651Z,74.80
2018-05-03T20:19:37.501Z,75.41
2018-05-03T20:22:04.116Z,75.33
2018-05-03T20:24:30.762Z,75.78
2018-05-03T20:26:57.877Z,76.10
2018-05-03T20:29:24.543Z,76.19
2018-05-03T20:31:51.769Z,76.49
2018-05-03T20:34:18.343Z,76.08
2018-05-03T20:36:44.876Z,75.91
2018-05-03T20:39:11.535Z,76.99
2018-05-03T20:41:38.269Z,77.41
2018-05-03T20:44:04.867Z,76.53
2018-05-03T20:46:31.500Z,77.22
2018-05-03T20:48:58.567Z,77.44
2018-05-03T20:51:29.057Z,76.76
2018-05-03T20:53:55.750Z,76.25
2018-05-03T20:56:22.767Z,75.64
2018-05-03T20:58:49.705Z,75.67
2018-05-03T21:01:24.585Z,75.26
2018-05-03T21:03:51.297Z,74.71
2018-05-03T21:06:18.735Z,75.89
2018-05-03T21:08:45.329Z,76.85
2018-05-03T21:11:15.129Z,76.47
2018-05-03T21:13:41.814Z,76.96
2018-05-03T21:16:08.487Z,77.37
2018-05-03T21:18:35.231Z,76.84
2018-05-03T21:21:07.102Z,77.32
2018-05-03T21:23:34.010Z,77.51
2018-05-03T21:26:01.473Z,77.02
2018-05-03T21:28:28.417Z,76.48
2018-05-03T21:31:00.932Z,76.67
2018-05-03T21:33:27.768Z,76.23
2018-05-03T21:35:54.406Z,77.20
2018-05-03T21:38:21.277Z,77.52
2018-05-03T21:40:49.237Z,75.56
2018-05-03T21:43:15.979Z,76.61
2018-05-03T21:45:42.528Z,75.31
2018-05-03T21:48:09.265Z,76.78
2018-05-03T21:50:39.301Z,76.75
2018-05-03T21:53:06.306Z,75.97
2018-05-03T21:55:33.249Z,75.45
2018-05-03T21:57:59.913Z,76.48
2018-05-03T22:00:26.838Z,75.33
2018-05-03T22:02:53.570Z,76.91
2018-05-03T22:05:20.162Z,75.84
2018-05-03T22:07:46.709Z,75.76
2018-05-03T22:10:13.604Z,75.26
2018-05-03T22:12:40.142Z,75.96
2018-05-03T22:15:06.881Z,76.07
2018-05-03T22:17:33.570Z,78.07
2018-05-03T22:20:03.683Z,76.69
2018-05-03T22:22:30.440Z,76.84
2018-05-03T22:24:58.394Z,77.47
2018-05-03T22:27:25.202Z,77.14
2018-05-03T22:29:52.998Z,77.53
2018-05-03T22:32:19.804Z,77.70
2018-05-03T22:34:46.500Z,77.23
2018-05-03T22:37:13.129Z,77.04
2018-05-03T22:39:40.832Z,77.66
2018-05-03T22:42:07.778Z,77.30
2018-05-03T22:44:34.441Z,77.76
2018-05-03T22:47:01.150Z,77.91
2018-05-03T22:49:29.040Z,77.66
2018-05-03T22:51:55.734Z,78.09
2018-05-03T22:54:22.422Z,77.85
2018-05-03T22:56:49.021Z,77.98
2018-05-03T22:59:18.635Z,77.84
2018-05-03T23:01:45.314Z,77.91
2018-05-03T23:04:11.986Z,77.92
2018-05-03T23:06:38.570Z,77.95
2018-05-03T23:09:08.521Z,78.35
2018-05-03T23:11:35.180Z,79.07
2018-05-03T23:14:01.897Z,79.03
2018-05-03T23:16:28.468Z,79.02
2018-05-03T23:18:58.656Z,79.02
2018-05-03T23:21:25.349Z,77.66
2018-05-03T23:23:52.030Z,78.66
2018-05-03T23:26:18.731Z,78.55
2018-05-03T23:28:45.426Z,78.61
2018-05-03T23:31:12.088Z,78.13
2018-05-03T23:33:38.717Z,78.25
2018-05-03T23:36:05.273Z,78.31
2018-05-03T23:38:31.942Z,77.71
2018-05-03T23:41:04.883Z,78.01
2018-05-03T23:43:31.396Z,78.33
2018-05-03T23:45:58.061Z,78.54
2018-05-03T23:48:24.656Z,79.12
2018-05-03T23:50:51.494Z,78.62
2018-05-03T23:53:18.132Z,78.37
2018-05-03T23:55:44.703Z,78.65
2018-05-03T23:58:11.441Z,79.09
